Higginsport, Ohio
Current Conditions -  °F | °C
As of 12:55 PM on Friday 31 Oct 2014 (Local Time) from KFGX Reporting Station
Drizzle Drizzle  
Wind Chill: 42°   Ceiling: 900
Heat Index: 45°   Visibility: 7mi
Dew Point: 43°   Wind: 7mph
Humidity: 93%   Direction: 220°SW
Pressure: 29.94"   Gusts: NA
Location:  38.79°N, 83.97°W
Report Text: KFGX 311655Z AUTO 22006KT 7SM -DZ BKN009 OVC031 07/06 A2994 RMK AO2 T00740063
Loading
Personal Weather Stations






























Interactive Weather Map
Tropical Storm Tracking
New forecast layout! Learn more

10-Day Weather Forecast

Advertisements
Track Severe Weather on mobile